sensor_id;sensor_type;location;lat;lon;timestamp;pressure;altitude;pressure_sealevel;temperature;humidity
21988;BME280;11158;53.404;-1.510;2023-03-16T00:01:03;99563.03;;;10.05;63.95
21988;BME280;11158;53.404;-1.510;2023-03-16T00:03:48;99552.31;;;9.85;64.65
21988;BME280;11158;53.404;-1.510;2023-03-16T00:06:32;99542.81;;;10.38;63.82
21988;BME280;11158;53.404;-1.510;2023-03-16T00:09:16;99541.22;;;9.89;64.55
21988;BME280;11158;53.404;-1.510;2023-03-16T00:12:02;99535.28;;;9.45;66.44
21988;BME280;11158;53.404;-1.510;2023-03-16T00:14:47;99525.56;;;9.72;66.94
21988;BME280;11158;53.404;-1.510;2023-03-16T00:17:31;99522.41;;;10.10;65.42
21988;BME280;11158;53.404;-1.510;2023-03-16T00:20:17;99521.09;;;9.38;67.76
21988;BME280;11158;53.404;-1.510;2023-03-16T00:23:02;99514.97;;;9.92;66.73
21988;BME280;11158;53.404;-1.510;2023-03-16T00:25:46;99498.25;;;9.70;66.89
21988;BME280;11158;53.404;-1.510;2023-03-16T00:28:31;99498.88;;;9.72;67.78
21988;BME280;11158;53.404;-1.510;2023-03-16T00:31:18;99489.66;;;9.81;66.69
21988;BME280;11158;53.404;-1.510;2023-03-16T00:34:02;99492.41;;;10.15;65.87
21988;BME280;11158;53.404;-1.510;2023-03-16T00:36:46;99483.34;;;10.09;65.95
21988;BME280;11158;53.404;-1.510;2023-03-16T00:39:29;99473.47;;;9.90;66.76
21988;BME280;11158;53.404;-1.510;2023-03-16T00:42:18;99457.47;;;9.90;66.57
21988;BME280;11158;53.404;-1.510;2023-03-16T00:45:04;99452.34;;;10.01;66.68
21988;BME280;11158;53.404;-1.510;2023-03-16T00:47:49;99456.22;;;9.92;66.59
21988;BME280;11158;53.404;-1.510;2023-03-16T00:50:38;99445.75;;;9.97;66.27
21988;BME280;11158;53.404;-1.510;2023-03-16T00:53:23;99447.22;;;10.20;66.54
21988;BME280;11158;53.404;-1.510;2023-03-16T00:56:07;99434.88;;;9.92;67.33
21988;BME280;11158;53.404;-1.510;2023-03-16T00:58:52;99426.63;;;9.87;67.12
21988;BME280;11158;53.404;-1.510;2023-03-16T01:01:40;99421.25;;;9.60;67.94
21988;BME280;11158;53.404;-1.510;2023-03-16T01:04:24;99419.63;;;9.66;68.51
21988;BME280;11158;53.404;-1.510;2023-03-16T01:07:11;99408.34;;;9.84;68.15
21988;BME280;11158;53.404;-1.510;2023-03-16T01:09:56;99397.03;;;9.55;68.78
21988;BME280;11158;53.404;-1.510;2023-03-16T01:12:41;99398.72;;;9.76;68.96
21988;BME280;11158;53.404;-1.510;2023-03-16T01:15:29;99394.81;;;9.92;68.47
21988;BME280;11158;53.404;-1.510;2023-03-16T01:18:13;99392.38;;;10.24;67.38
21988;BME280;11158;53.404;-1.510;2023-03-16T01:20:57;99377.78;;;10.40;67.02
21988;BME280;11158;53.404;-1.510;2023-03-16T01:23:41;99375.47;;;10.63;65.96
21988;BME280;11158;53.404;-1.510;2023-03-16T01:26:27;99373.91;;;10.36;66.85
21988;BME280;11158;53.404;-1.510;2023-03-16T01:29:11;99358.47;;;10.18;67.37
21988;BME280;11158;53.404;-1.510;2023-03-16T01:32:00;99363.19;;;10.22;67.88
21988;BME280;11158;53.404;-1.510;2023-03-16T01:34:45;99359.28;;;10.25;67.16
21988;BME280;11158;53.404;-1.510;2023-03-16T01:37:29;99345.13;;;10.96;65.77
21988;BME280;11158;53.404;-1.510;2023-03-16T01:40:14;99341.63;;;10.04;68.17
21988;BME280;11158;53.404;-1.510;2023-03-16T01:43:02;99340.38;;;10.26;68.49
21988;BME280;11158;53.404;-1.510;2023-03-16T01:48:57;99330.72;;;10.12;68.63
21988;BME280;11158;53.404;-1.510;2023-03-16T01:52:00;99334.25;;;10.06;68.50
21988;BME280;11158;53.404;-1.510;2023-03-16T01:55:05;99331.84;;;10.69;66.95
21988;BME280;11158;53.404;-1.510;2023-03-16T01:57:51;99334.94;;;10.80;67.20
21988;BME280;11158;53.404;-1.510;2023-03-16T02:00:36;99324.88;;;11.20;65.32
21988;BME280;11158;53.404;-1.510;2023-03-16T02:03:20;99314.47;;;10.99;65.36
21988;BME280;11158;53.404;-1.510;2023-03-16T02:06:10;99313.16;;;10.69;66.61
21988;BME280;11158;53.404;-1.510;2023-03-16T02:08:56;99306.09;;;10.88;65.81
21988;BME280;11158;53.404;-1.510;2023-03-16T02:11:40;99305.63;;;10.46;67.82
21988;BME280;11158;53.404;-1.510;2023-03-16T02:14:25;99297.00;;;10.96;65.78
21988;BME280;11158;53.404;-1.510;2023-03-16T02:17:10;99289.47;;;10.80;66.20
21988;BME280;11158;53.404;-1.510;2023-03-16T02:20:21;99291.38;;;10.66;67.13
21988;BME280;11158;53.404;-1.510;2023-03-16T02:23:10;99292.97;;;11.19;66.17
21988;BME280;11158;53.404;-1.510;2023-03-16T02:26:16;99283.47;;;10.91;66.62
21988;BME280;11158;53.404;-1.510;2023-03-16T02:32:18;99273.81;;;11.22;65.42
21988;BME280;11158;53.404;-1.510;2023-03-16T02:35:03;99278.91;;;10.98;66.72
21988;BME280;11158;53.404;-1.510;2023-03-16T02:37:49;99266.56;;;10.59;67.78
21988;BME280;11158;53.404;-1.510;2023-03-16T02:40:34;99264.59;;;11.43;65.97
21988;BME280;11158;53.404;-1.510;2023-03-16T02:43:24;99256.91;;;11.28;65.51
21988;BME280;11158;53.404;-1.510;2023-03-16T02:46:10;99250.06;;;11.89;64.12
21988;BME280;11158;53.404;-1.510;2023-03-16T02:48:59;99252.78;;;11.57;64.74
21988;BME280;11158;53.404;-1.510;2023-03-16T02:51:46;99249.97;;;10.88;67.51
21988;BME280;11158;53.404;-1.510;2023-03-16T02:54:30;99248.06;;;11.27;66.81
21988;BME280;11158;53.404;-1.510;2023-03-16T02:57:14;99244.06;;;11.93;64.58
21988;BME280;11158;53.404;-1.510;2023-03-16T02:59:59;99242.75;;;11.21;66.63
21988;BME280;11158;53.404;-1.510;2023-03-16T03:02:44;99235.66;;;12.08;64.10
21988;BME280;11158;53.404;-1.510;2023-03-16T03:05:28;99232.16;;;12.45;62.45
21988;BME280;11158;53.404;-1.510;2023-03-16T03:08:13;99226.66;;;12.03;63.20
21988;BME280;11158;53.404;-1.510;2023-03-16T03:10:58;99226.28;;;11.74;64.44
21988;BME280;11158;53.404;-1.510;2023-03-16T03:13:42;99228.50;;;11.77;64.33
21988;BME280;11158;53.404;-1.510;2023-03-16T03:16:27;99222.03;;;12.28;63.46
21988;BME280;11158;53.404;-1.510;2023-03-16T03:19:11;99222.19;;;12.15;63.18
21988;BME280;11158;53.404;-1.510;2023-03-16T03:21:56;99224.41;;;11.74;64.09
21988;BME280;11158;53.404;-1.510;2023-03-16T03:24:41;99219.28;;;11.98;64.57
21988;BME280;11158;53.404;-1.510;2023-03-16T03:27:25;99226.34;;;12.29;63.48
21988;BME280;11158;53.404;-1.510;2023-03-16T03:30:12;99223.38;;;11.76;64.30
21988;BME280;11158;53.404;-1.510;2023-03-16T03:32:57;99217.03;;;11.70;65.42
21988;BME280;11158;53.404;-1.510;2023-03-16T03:35:41;99228.78;;;11.19;67.63
21988;BME280;11158;53.404;-1.510;2023-03-16T03:38:26;99221.19;;;11.66;65.99
21988;BME280;11158;53.404;-1.510;2023-03-16T03:41:10;99211.97;;;11.11;67.86
21988;BME280;11158;53.404;-1.510;2023-03-16T03:43:54;99210.22;;;11.49;66.78
21988;BME280;11158;53.404;-1.510;2023-03-16T03:46:38;99211.09;;;11.68;66.31
21988;BME280;11158;53.404;-1.510;2023-03-16T03:49:22;99202.91;;;11.38;66.56
21988;BME280;11158;53.404;-1.510;2023-03-16T03:52:06;99214.44;;;10.23;71.62
21988;BME280;11158;53.404;-1.510;2023-03-16T03:54:50;99211.31;;;10.84;69.42
21988;BME280;11158;53.404;-1.510;2023-03-16T03:57:35;99202.34;;;11.04;69.55
21988;BME280;11158;53.404;-1.510;2023-03-16T04:00:20;99202.69;;;11.39;67.93
21988;BME280;11158;53.404;-1.510;2023-03-16T04:03:05;99194.56;;;11.27;68.26
21988;BME280;11158;53.404;-1.510;2023-03-16T04:05:49;99198.50;;;11.25;68.39
21988;BME280;11158;53.404;-1.510;2023-03-16T04:08:34;99202.75;;;11.32;68.50
21988;BME280;11158;53.404;-1.510;2023-03-16T04:11:19;99196.75;;;11.37;67.88
21988;BME280;11158;53.404;-1.510;2023-03-16T04:14:04;99192.59;;;11.41;68.03
21988;BME280;11158;53.404;-1.510;2023-03-16T04:16:48;99191.00;;;11.59;67.61
21988;BME280;11158;53.404;-1.510;2023-03-16T04:19:32;99187.31;;;11.78;67.10
21988;BME280;11158;53.404;-1.510;2023-03-16T04:22:16;99190.91;;;11.47;67.94
21988;BME280;11158;53.404;-1.510;2023-03-16T04:25:01;99183.56;;;11.36;67.55
21988;BME280;11158;53.404;-1.510;2023-03-16T04:27:48;99186.00;;;11.19;68.75
21988;BME280;11158;53.404;-1.510;2023-03-16T04:30:32;99182.50;;;11.43;68.33
21988;BME280;11158;53.404;-1.510;2023-03-16T04:33:18;99166.25;;;11.38;68.91
21988;BME280;11158;53.404;-1.510;2023-03-16T04:36:04;99163.13;;;11.66;67.39
21988;BME280;11158;53.404;-1.510;2023-03-16T04:38:49;99169.88;;;11.50;68.00
21988;BME280;11158;53.404;-1.510;2023-03-16T04:41:34;99176.53;;;11.66;67.91
21988;BME280;11158;53.404;-1.510;2023-03-16T04:44:18;99170.88;;;11.74;67.10
21988;BME280;11158;53.404;-1.510;2023-03-16T04:47:02;99179.44;;;11.83;67.51
21988;BME280;11158;53.404;-1.510;2023-03-16T04:49:46;99175.63;;;11.72;67.32
21988;BME280;11158;53.404;-1.510;2023-03-16T04:52:31;99183.09;;;11.45;68.83
21988;BME280;11158;53.404;-1.510;2023-03-16T04:55:15;99182.84;;;11.72;67.77
21988;BME280;11158;53.404;-1.510;2023-03-16T04:57:59;99182.59;;;11.99;66.89
21988;BME280;11158;53.404;-1.510;2023-03-16T05:00:44;99176.72;;;12.08;66.74
21988;BME280;11158;53.404;-1.510;2023-03-16T05:03:28;99182.16;;;12.02;67.06
21988;BME280;11158;53.404;-1.510;2023-03-16T05:06:12;99178.63;;;12.38;65.66
21988;BME280;11158;53.404;-1.510;2023-03-16T05:08:58;99177.59;;;12.21;65.62
21988;BME280;11158;53.404;-1.510;2023-03-16T05:11:42;99172.97;;;12.46;65.08
21988;BME280;11158;53.404;-1.510;2023-03-16T05:14:26;99169.13;;;12.24;65.41
21988;BME280;11158;53.404;-1.510;2023-03-16T05:17:10;99169.81;;;12.19;66.04
21988;BME280;11158;53.404;-1.510;2023-03-16T05:19:57;99168.13;;;12.36;66.03
21988;BME280;11158;53.404;-1.510;2023-03-16T05:22:43;99160.94;;;12.37;66.37
21988;BME280;11158;53.404;-1.510;2023-03-16T05:25:27;99164.81;;;12.83;65.15
21988;BME280;11158;53.404;-1.510;2023-03-16T05:28:11;99162.88;;;13.02;64.05
21988;BME280;11158;53.404;-1.510;2023-03-16T05:30:56;99156.63;;;12.48;65.85
21988;BME280;11158;53.404;-1.510;2023-03-16T05:33:40;99156.09;;;12.09;67.17
21988;BME280;11158;53.404;-1.510;2023-03-16T05:36:24;99158.31;;;12.91;64.67
21988;BME280;11158;53.404;-1.510;2023-03-16T05:39:09;99164.78;;;12.71;65.43
21988;BME280;11158;53.404;-1.510;2023-03-16T05:41:53;99146.41;;;12.26;66.53
21988;BME280;11158;53.404;-1.510;2023-03-16T05:44:38;99154.75;;;12.18;67.35
21988;BME280;11158;53.404;-1.510;2023-03-16T05:47:22;99157.47;;;11.56;69.44
21988;BME280;11158;53.404;-1.510;2023-03-16T05:50:07;99153.00;;;11.93;68.07
21988;BME280;11158;53.404;-1.510;2023-03-16T05:52:55;99165.97;;;11.71;68.84
21988;BME280;11158;53.404;-1.510;2023-03-16T05:55:39;99161.78;;;12.01;68.36
21988;BME280;11158;53.404;-1.510;2023-03-16T05:58:24;99166.38;;;11.93;68.13
21988;BME280;11158;53.404;-1.510;2023-03-16T06:01:08;99166.47;;;11.62;69.84
21988;BME280;11158;53.404;-1.510;2023-03-16T06:03:53;99158.59;;;11.67;69.46
21988;BME280;11158;53.404;-1.510;2023-03-16T06:06:38;99150.53;;;11.92;68.36
21988;BME280;11158;53.404;-1.510;2023-03-16T06:09:21;99151.53;;;11.29;69.78
21988;BME280;11158;53.404;-1.510;2023-03-16T06:12:06;99147.03;;;11.29;70.14
21988;BME280;11158;53.404;-1.510;2023-03-16T06:14:50;99155.53;;;11.63;68.72
21988;BME280;11158;53.404;-1.510;2023-03-16T06:17:35;99146.03;;;11.67;68.70
21988;BME280;11158;53.404;-1.510;2023-03-16T06:20:19;99142.38;;;11.43;69.54
21988;BME280;11158;53.404;-1.510;2023-03-16T06:23:03;99140.06;;;11.47;68.94
21988;BME280;11158;53.404;-1.510;2023-03-16T06:25:48;99144.88;;;11.57;68.71
21988;BME280;11158;53.404;-1.510;2023-03-16T06:28:32;99131.38;;;11.70;67.68
21988;BME280;11158;53.404;-1.510;2023-03-16T06:31:16;99136.03;;;12.00;66.38
21988;BME280;11158;53.404;-1.510;2023-03-16T06:34:00;99145.09;;;12.17;65.75
21988;BME280;11158;53.404;-1.510;2023-03-16T06:36:45;99147.31;;;12.20;66.21
21988;BME280;11158;53.404;-1.510;2023-03-16T06:39:29;99153.69;;;11.64;67.85
21988;BME280;11158;53.404;-1.510;2023-03-16T06:42:14;99137.22;;;12.04;66.66
21988;BME280;11158;53.404;-1.510;2023-03-16T06:44:58;99126.56;;;11.79;67.31
21988;BME280;11158;53.404;-1.510;2023-03-16T06:47:43;99121.84;;;12.60;64.64
21988;BME280;11158;53.404;-1.510;2023-03-16T06:50:27;99128.03;;;12.60;64.45
21988;BME280;11158;53.404;-1.510;2023-03-16T06:53:11;99119.72;;;12.50;64.77
21988;BME280;11158;53.404;-1.510;2023-03-16T06:55:55;99127.88;;;12.97;63.92
21988;BME280;11158;53.404;-1.510;2023-03-16T06:58:39;99122.16;;;13.05;62.58
21988;BME280;11158;53.404;-1.510;2023-03-16T07:01:24;99121.75;;;13.32;62.10
21988;BME280;11158;53.404;-1.510;2023-03-16T07:04:08;99121.16;;;13.65;61.37
21988;BME280;11158;53.404;-1.510;2023-03-16T07:06:53;99129.22;;;13.41;61.72
21988;BME280;11158;53.404;-1.510;2023-03-16T07:09:37;99125.59;;;13.71;60.45
21988;BME280;11158;53.404;-1.510;2023-03-16T07:12:21;99117.81;;;14.10;60.08
21988;BME280;11158;53.404;-1.510;2023-03-16T07:15:05;99123.47;;;14.25;59.06
21988;BME280;11158;53.404;-1.510;2023-03-16T07:17:50;99115.97;;;13.99;59.38
21988;BME280;11158;53.404;-1.510;2023-03-16T07:20:35;99120.78;;;14.25;59.22
21988;BME280;11158;53.404;-1.510;2023-03-16T07:23:20;99112.56;;;14.03;59.50
21988;BME280;11158;53.404;-1.510;2023-03-16T07:26:04;99112.69;;;14.37;58.62
21988;BME280;11158;53.404;-1.510;2023-03-16T07:28:50;99112.38;;;13.93;59.57
21988;BME280;11158;53.404;-1.510;2023-03-16T07:31:34;99113.09;;;14.17;59.23
21988;BME280;11158;53.404;-1.510;2023-03-16T07:34:19;99125.13;;;13.74;60.38
21988;BME280;11158;53.404;-1.510;2023-03-16T07:37:04;99132.28;;;13.45;61.54
21988;BME280;11158;53.404;-1.510;2023-03-16T07:39:49;99134.34;;;13.67;60.77
21988;BME280;11158;53.404;-1.510;2023-03-16T07:42:33;99122.22;;;14.16;59.82
21988;BME280;11158;53.404;-1.510;2023-03-16T07:45:18;99129.03;;;14.07;59.42
21988;BME280;11158;53.404;-1.510;2023-03-16T07:48:02;99118.91;;;14.26;59.11
21988;BME280;11158;53.404;-1.510;2023-03-16T07:50:47;99122.94;;;13.48;61.70
21988;BME280;11158;53.404;-1.510;2023-03-16T07:53:31;99134.50;;;13.36;61.77
21988;BME280;11158;53.404;-1.510;2023-03-16T07:56:15;99134.06;;;14.03;60.03
21988;BME280;11158;53.404;-1.510;2023-03-16T07:59:00;99125.03;;;13.57;61.09
21988;BME280;11158;53.404;-1.510;2023-03-16T08:01:44;99132.16;;;13.64;61.76
21988;BME280;11158;53.404;-1.510;2023-03-16T08:04:29;99124.88;;;13.17;63.12
21988;BME280;11158;53.404;-1.510;2023-03-16T08:07:14;99118.97;;;13.50;62.48
21988;BME280;11158;53.404;-1.510;2023-03-16T08:09:58;99107.25;;;13.80;61.22
21988;BME280;11158;53.404;-1.510;2023-03-16T08:12:43;99103.91;;;13.49;62.77
21988;BME280;11158;53.404;-1.510;2023-03-16T08:15:28;99092.63;;;12.70;64.81
21988;BME280;11158;53.404;-1.510;2023-03-16T08:18:12;99087.78;;;13.02;64.33
21988;BME280;11158;53.404;-1.510;2023-03-16T08:20:56;99094.19;;;12.47;66.20
21988;BME280;11158;53.404;-1.510;2023-03-16T08:23:42;99094.91;;;12.54;66.93
21988;BME280;11158;53.404;-1.510;2023-03-16T08:26:31;99098.88;;;12.52;66.94
21988;BME280;11158;53.404;-1.510;2023-03-16T08:29:16;99104.78;;;12.12;67.62
21988;BME280;11158;53.404;-1.510;2023-03-16T08:32:02;99103.38;;;12.40;67.13
21988;BME280;11158;53.404;-1.510;2023-03-16T08:34:46;99103.91;;;12.60;65.83
21988;BME280;11158;53.404;-1.510;2023-03-16T08:37:30;99099.16;;;12.62;66.20
21988;BME280;11158;53.404;-1.510;2023-03-16T08:40:14;99093.66;;;13.34;63.73
21988;BME280;11158;53.404;-1.510;2023-03-16T08:43:02;99110.34;;;12.83;64.83
21988;BME280;11158;53.404;-1.510;2023-03-16T08:45:47;99106.63;;;12.72;65.11
21988;BME280;11158;53.404;-1.510;2023-03-16T08:48:31;99111.09;;;13.02;64.33
21988;BME280;11158;53.404;-1.510;2023-03-16T08:51:18;99116.09;;;13.92;62.55
21988;BME280;11158;53.404;-1.510;2023-03-16T08:54:02;99124.06;;;14.28;61.06
21988;BME280;11158;53.404;-1.510;2023-03-16T08:56:46;99125.16;;;14.15;61.42
21988;BME280;11158;53.404;-1.510;2023-03-16T08:59:30;99118.19;;;14.31;60.29
21988;BME280;11158;53.404;-1.510;2023-03-16T09:02:15;99121.75;;;13.44;63.28
21988;BME280;11158;53.404;-1.510;2023-03-16T09:04:59;99122.88;;;13.83;62.08
21988;BME280;11158;53.404;-1.510;2023-03-16T09:07:43;99123.16;;;14.51;60.71
21988;BME280;11158;53.404;-1.510;2023-03-16T09:10:28;99113.84;;;14.01;61.63
21988;BME280;11158;53.404;-1.510;2023-03-16T09:13:15;99112.56;;;14.03;61.15
21988;BME280;11158;53.404;-1.510;2023-03-16T09:15:59;99109.31;;;13.90;60.73
21988;BME280;11158;53.404;-1.510;2023-03-16T09:18:43;99108.16;;;14.26;60.68
21988;BME280;11158;53.404;-1.510;2023-03-16T09:21:27;99108.38;;;13.96;61.74
21988;BME280;11158;53.404;-1.510;2023-03-16T09:24:12;99112.06;;;13.66;62.32
21988;BME280;11158;53.404;-1.510;2023-03-16T09:26:57;99110.28;;;13.72;62.07
21988;BME280;11158;53.404;-1.510;2023-03-16T09:29:41;99110.69;;;14.04;61.01
21988;BME280;11158;53.404;-1.510;2023-03-16T09:32:27;99114.75;;;13.66;62.67
21988;BME280;11158;53.404;-1.510;2023-03-16T09:35:11;99112.63;;;13.80;62.16
21988;BME280;11158;53.404;-1.510;2023-03-16T09:37:55;99128.09;;;14.01;62.27
21988;BME280;11158;53.404;-1.510;2023-03-16T09:40:40;99132.03;;;13.47;63.20
21988;BME280;11158;53.404;-1.510;2023-03-16T09:43:47;99126.03;;;13.92;62.02
21988;BME280;11158;53.404;-1.510;2023-03-16T09:46:38;99125.09;;;13.98;62.62
21988;BME280;11158;53.404;-1.510;2023-03-16T09:49:30;99125.25;;;14.49;61.03
21988;BME280;11158;53.404;-1.510;2023-03-16T09:52:24;99126.78;;;13.52;64.10
21988;BME280;11158;53.404;-1.510;2023-03-16T09:58:15;99119.00;;;14.31;61.48
21988;BME280;11158;53.404;-1.510;2023-03-16T10:01:05;99123.13;;;13.70;63.45
21988;BME280;11158;53.404;-1.510;2023-03-16T10:04:16;99118.72;;;13.64;63.36
21988;BME280;11158;53.404;-1.510;2023-03-16T10:12:59;99126.91;;;13.45;64.55
21988;BME280;11158;53.404;-1.510;2023-03-16T10:15:44;99113.69;;;13.67;63.33
21988;BME280;11158;53.404;-1.510;2023-03-16T10:18:34;99108.34;;;14.08;62.93
21988;BME280;11158;53.404;-1.510;2023-03-16T10:21:22;99107.41;;;14.14;62.48
21988;BME280;11158;53.404;-1.510;2023-03-16T10:24:32;99106.34;;;14.15;62.78
21988;BME280;11158;53.404;-1.510;2023-03-16T10:27:25;99104.31;;;14.22;62.33
21988;BME280;11158;53.404;-1.510;2023-03-16T10:33:27;99094.72;;;14.26;61.85
21988;BME280;11158;53.404;-1.510;2023-03-16T10:36:26;99094.28;;;13.89;62.32
21988;BME280;11158;53.404;-1.510;2023-03-16T10:39:13;99104.00;;;14.18;62.13
21988;BME280;11158;53.404;-1.510;2023-03-16T10:41:57;99089.53;;;13.79;62.75
21988;BME280;11158;53.404;-1.510;2023-03-16T10:44:42;99079.84;;;14.35;61.43
21988;BME280;11158;53.404;-1.510;2023-03-16T10:47:30;99085.56;;;14.68;60.63
21988;BME280;11158;53.404;-1.510;2023-03-16T10:50:15;99076.69;;;14.10;61.13
21988;BME280;11158;53.404;-1.510;2023-03-16T10:53:21;99081.22;;;13.80;62.35
21988;BME280;11158;53.404;-1.510;2023-03-16T10:56:12;99083.22;;;14.14;61.61
21988;BME280;11158;53.404;-1.510;2023-03-16T10:59:11;99073.09;;;14.50;60.93
21988;BME280;11158;53.404;-1.510;2023-03-16T11:01:56;99056.47;;;14.81;59.76
21988;BME280;11158;53.404;-1.510;2023-03-16T11:04:41;99067.94;;;14.77;59.57
21988;BME280;11158;53.404;-1.510;2023-03-16T11:07:27;99066.31;;;14.93;59.65
21988;BME280;11158;53.404;-1.510;2023-03-16T11:10:24;99070.09;;;14.46;60.29
21988;BME280;11158;53.404;-1.510;2023-03-16T11:13:16;99069.03;;;14.76;59.58
21988;BME280;11158;53.404;-1.510;2023-03-16T11:16:16;99067.97;;;14.94;59.18
21988;BME280;11158;53.404;-1.510;2023-03-16T11:19:27;99057.13;;;15.44;56.72
21988;BME280;11158;53.404;-1.510;2023-03-16T11:22:14;99074.09;;;15.45;56.72
21988;BME280;11158;53.404;-1.510;2023-03-16T11:30:55;99067.53;;;15.02;58.65
21988;BME280;11158;53.404;-1.510;2023-03-16T11:33:42;99059.09;;;15.32;57.55
21988;BME280;11158;53.404;-1.510;2023-03-16T11:56:48;99032.59;;;15.63;56.69
21988;BME280;11158;53.404;-1.510;2023-03-16T12:09:11;99017.03;;;16.14;54.92
21988;BME280;11158;53.404;-1.510;2023-03-16T12:12:03;99013.41;;;16.30;54.55
21988;BME280;11158;53.404;-1.510;2023-03-16T12:15:02;99017.97;;;16.89;52.44
21988;BME280;11158;53.404;-1.510;2023-03-16T12:17:54;99018.72;;;17.22;51.96
21988;BME280;11158;53.404;-1.510;2023-03-16T12:23:40;99029.78;;;17.78;51.11
21988;BME280;11158;53.404;-1.510;2023-03-16T12:26:28;99035.06;;;17.48;50.53
21988;BME280;11158;53.404;-1.510;2023-03-16T12:29:22;99025.78;;;17.33;50.81
21988;BME280;11158;53.404;-1.510;2023-03-16T12:32:20;99032.88;;;17.45;51.04
21988;BME280;11158;53.404;-1.510;2023-03-16T12:35:54;99033.78;;;16.48;53.72
21988;BME280;11158;53.404;-1.510;2023-03-16T12:44:47;99034.06;;;16.20;53.96
21988;BME280;11158;53.404;-1.510;2023-03-16T12:51:00;99044.75;;;15.65;55.77
21988;BME280;11158;53.404;-1.510;2023-03-16T12:53:53;99052.22;;;16.02;54.15
21988;BME280;11158;53.404;-1.510;2023-03-16T12:56:46;99042.78;;;16.27;53.15
21988;BME280;11158;53.404;-1.510;2023-03-16T12:59:39;99044.75;;;16.37;53.38
21988;BME280;11158;53.404;-1.510;2023-03-16T13:02:31;99055.03;;;16.72;53.15
21988;BME280;11158;53.404;-1.510;2023-03-16T13:05:27;99042.72;;;16.22;53.48
21988;BME280;11158;53.404;-1.510;2023-03-16T13:08:14;99035.88;;;15.87;54.53
21988;BME280;11158;53.404;-1.510;2023-03-16T13:11:01;99042.41;;;15.52;56.34
21988;BME280;11158;53.404;-1.510;2023-03-16T13:16:43;99048.03;;;16.44;53.73
21988;BME280;11158;53.404;-1.510;2023-03-16T13:19:30;99046.72;;;15.92;55.04
21988;BME280;11158;53.404;-1.510;2023-03-16T13:22:28;99022.81;;;16.01;54.09
21988;BME280;11158;53.404;-1.510;2023-03-16T13:28:14;99023.44;;;16.67;52.42
21988;BME280;11158;53.404;-1.510;2023-03-16T13:31:00;99036.41;;;16.70;52.82
21988;BME280;11158;53.404;-1.510;2023-03-16T13:33:45;99026.84;;;16.85;52.19
21988;BME280;11158;53.404;-1.510;2023-03-16T13:36:30;99022.69;;;17.09;51.37
21988;BME280;11158;53.404;-1.510;2023-03-16T13:39:21;99011.13;;;17.19;51.02
21988;BME280;11158;53.404;-1.510;2023-03-16T13:42:17;99007.16;;;16.89;51.85
21988;BME280;11158;53.404;-1.510;2023-03-16T13:45:19;99011.75;;;16.89;52.14
21988;BME280;11158;53.404;-1.510;2023-03-16T13:48:04;99015.91;;;16.37;53.05
21988;BME280;11158;53.404;-1.510;2023-03-16T13:50:55;99014.44;;;15.97;54.52
21988;BME280;11158;53.404;-1.510;2023-03-16T13:53:43;99007.03;;;15.65;54.47
21988;BME280;11158;53.404;-1.510;2023-03-16T13:56:27;99011.19;;;15.73;55.28
21988;BME280;11158;53.404;-1.510;2023-03-16T13:59:14;99004.22;;;15.99;54.47
21988;BME280;11158;53.404;-1.510;2023-03-16T14:02:01;99015.63;;;15.62;55.15
21988;BME280;11158;53.404;-1.510;2023-03-16T14:04:45;99005.38;;;15.64;55.31
21988;BME280;11158;53.404;-1.510;2023-03-16T14:07:36;99017.31;;;15.90;54.79
21988;BME280;11158;53.404;-1.510;2023-03-16T14:10:23;99017.97;;;16.03;54.86
21988;BME280;11158;53.404;-1.510;2023-03-16T14:13:22;98996.91;;;15.95;54.12
21988;BME280;11158;53.404;-1.510;2023-03-16T14:16:17;99008.13;;;16.41;53.29
21988;BME280;11158;53.404;-1.510;2023-03-16T14:19:17;98999.44;;;16.33;54.28
21988;BME280;11158;53.404;-1.510;2023-03-16T14:22:03;99009.63;;;16.59;52.45
21988;BME280;11158;53.404;-1.510;2023-03-16T14:24:53;99006.31;;;17.26;51.30
21988;BME280;11158;53.404;-1.510;2023-03-16T14:27:43;99005.00;;;16.22;53.96
21988;BME280;11158;53.404;-1.510;2023-03-16T14:30:29;98996.47;;;16.35;53.09
21988;BME280;11158;53.404;-1.510;2023-03-16T14:33:40;99001.47;;;15.28;55.67
21988;BME280;11158;53.404;-1.510;2023-03-16T14:36:36;99003.94;;;15.74;54.91
21988;BME280;11158;53.404;-1.510;2023-03-16T14:39:25;98993.66;;;16.20;53.90
21988;BME280;11158;53.404;-1.510;2023-03-16T14:42:18;98982.75;;;16.74;52.27
21988;BME280;11158;53.404;-1.510;2023-03-16T14:45:11;98988.66;;;16.71;52.56
21988;BME280;11158;53.404;-1.510;2023-03-16T14:48:02;98988.88;;;17.54;50.36
21988;BME280;11158;53.404;-1.510;2023-03-16T14:50:53;98988.06;;;16.64;52.45
21988;BME280;11158;53.404;-1.510;2023-03-16T14:53:37;98997.03;;;16.37;53.73
21988;BME280;11158;53.404;-1.510;2023-03-16T14:56:22;98989.28;;;15.25;56.33
21988;BME280;11158;53.404;-1.510;2023-03-16T14:59:06;98991.38;;;15.84;55.15
21988;BME280;11158;53.404;-1.510;2023-03-16T15:01:52;98981.16;;;15.86;54.39
21988;BME280;11158;53.404;-1.510;2023-03-16T15:04:38;99002.34;;;16.27;53.40
21988;BME280;11158;53.404;-1.510;2023-03-16T15:07:26;99008.50;;;15.12;56.87
21988;BME280;11158;53.404;-1.510;2023-03-16T15:10:31;99002.63;;;16.03;54.81
21988;BME280;11158;53.404;-1.510;2023-03-16T15:13:20;99002.63;;;15.76;55.23
21988;BME280;11158;53.404;-1.510;2023-03-16T15:16:20;99012.00;;;15.13;56.76
21988;BME280;11158;53.404;-1.510;2023-03-16T15:19:04;99012.75;;;15.47;55.85
21988;BME280;11158;53.404;-1.510;2023-03-16T15:21:49;99002.47;;;15.44;56.18
21988;BME280;11158;53.404;-1.510;2023-03-16T15:24:33;98995.13;;;15.61;55.97
21988;BME280;11158;53.404;-1.510;2023-03-16T15:27:20;98999.56;;;15.28;56.00
21988;BME280;11158;53.404;-1.510;2023-03-16T15:30:09;98998.44;;;15.24;56.80
21988;BME280;11158;53.404;-1.510;2023-03-16T15:32:58;99004.59;;;15.42;55.72
21988;BME280;11158;53.404;-1.510;2023-03-16T15:35:44;99007.19;;;15.37;55.61
21988;BME280;11158;53.404;-1.510;2023-03-16T15:38:34;99008.59;;;15.39;55.54
21988;BME280;11158;53.404;-1.510;2023-03-16T15:41:22;99007.94;;;15.71;55.37
21988;BME280;11158;53.404;-1.510;2023-03-16T15:44:11;99000.13;;;14.92;57.71
21988;BME280;11158;53.404;-1.510;2023-03-16T15:46:55;98996.22;;;14.65;58.64